METAR Data
IDs: Format: Raw Decoded Include TAF

Data at: 1243 UTC 17 Sep 2019

KRZL 171235Z AUTO 07004KT 3/4SM BR OVC003 17/17 A3018 RMK AO2